Time;durP1;ratioP1;P1;durP2;ratioP2;P2;SDS_P1;SDS_P2;PMS_P1;PMS_P2;Temp;Humidity;BMP_temperature;BMP_pressure;BME280_temperature;BME280_humidity;BME280_pressure;Samples;Min_cycle;Max_cycle;Signal;HPM_P1;HPM_P2
2021/07/23 00:02:09;;;;;;;15.75;9.52;;;;;;;23.56;64.90;100107.91;4957119;28;20130;-83
2021/07/23 00:04:37;;;;;;;16.92;10.52;;;;;;;23.53;65.04;100109.88;4965454;28;20047;-82
2021/07/23 00:07:03;;;;;;;12.13;9.38;;;;;;;23.44;65.55;100116.22;4954376;29;20039;-83
2021/07/23 00:09:30;;;;;;;16.52;10.57;;;;;;;23.50;65.47;100110.22;4954838;28;20050;-84
2021/07/23 00:11:57;;;;;;;13.45;10.13;;;;;;;23.49;65.06;100103.25;4960570;28;20047;-83
2021/07/23 00:14:26;;;;;;;11.98;9.18;;;;;;;23.40;65.62;100098.06;4953783;29;20059;-83
2021/07/23 00:16:53;;;;;;;15.98;11.10;;;;;;;23.63;64.65;100087.66;4955472;28;20051;-83
2021/07/23 00:19:20;;;;;;;18.00;9.90;;;;;;;23.43;65.63;100085.25;4954436;28;20075;-83
2021/07/23 00:21:47;;;;;;;14.68;8.88;;;;;;;23.52;65.12;100086.94;4954439;28;20203;-83
2021/07/23 00:24:14;;;;;;;10.82;7.55;;;;;;;23.45;65.46;100082.47;4954467;29;20043;-83
2021/07/23 00:26:41;;;;;;;10.07;8.65;;;;;;;23.57;64.85;100085.63;4954359;29;20047;-83
2021/07/23 00:29:07;;;;;;;11.73;7.95;;;;;;;23.48;65.38;100072.28;4954267;28;20534;-83
2021/07/23 00:31:35;;;;;;;9.18;7.53;;;;;;;23.45;65.26;100072.66;4969355;28;20042;-83
2021/07/23 00:34:02;;;;;;;11.13;8.13;;;;;;;23.58;65.06;100079.31;4973647;28;20098;-83
2021/07/23 00:36:28;;;;;;;10.77;8.23;;;;;;;23.50;65.60;100072.16;4955790;28;20074;-82
2021/07/23 00:38:56;;;;;;;12.65;7.80;;;;;;;23.61;64.97;100063.03;4973662;28;20062;-83
2021/07/23 00:41:23;;;;;;;10.60;7.95;;;;;;;23.72;64.53;100062.72;4955673;28;20457;-83
2021/07/23 00:43:50;;;;;;;10.95;7.95;;;;;;;23.55;65.43;100061.03;4973730;28;20058;-83
2021/07/23 00:46:17;;;;;;;9.23;7.30;;;;;;;23.52;65.45;100059.50;4951402;29;20039;-84
2021/07/23 00:48:44;;;;;;;8.02;7.30;;;;;;;23.50;65.63;100057.03;4954311;29;20043;-83
2021/07/23 00:51:12;;;;;;;11.63;7.95;;;;;;;23.50;65.88;100057.03;4967034;28;20078;-83
2021/07/23 00:53:39;;;;;;;11.85;8.38;;;;;;;23.51;65.40;100056.03;4973305;28;20046;-83
2021/07/23 00:56:06;;;;;;;11.77;8.65;;;;;;;23.49;65.40;100058.03;4957808;28;20054;-82
2021/07/23 00:58:34;;;;;;;10.25;7.80;;;;;;;23.53;65.67;100067.31;4936983;29;20126;-83
2021/07/23 01:01:01;;;;;;;11.38;8.93;;;;;;;23.58;65.23;100058.00;4957866;28;20053;-82
2021/07/23 01:03:36;;;;;;;12.77;7.72;;;;;;;23.58;65.06;100063.34;4939574;29;20058;-83
2021/07/23 01:06:04;;;;;;;9.38;7.40;;;;;;;23.68;64.73;100061.38;4959590;28;20561;-83
2021/07/23 01:08:32;;;;;;;8.25;7.43;;;;;;;23.36;65.96;100059.50;4957050;29;20042;-83
2021/07/23 01:10:59;;;;;;;10.45;6.95;;;;;;;23.42;65.56;100064.97;4940245;29;20039;-83
2021/07/23 01:13:45;;;;;;;8.18;7.28;;;;;;;23.28;65.99;100070.97;4960128;28;20611;-83
2021/07/23 01:16:13;;;;;;;9.95;7.78;;;;;;;23.40;65.66;100069.63;4940399;28;20043;-83
2021/07/23 01:18:42;;;;;;;9.52;7.72;;;;;;;23.42;65.41;100062.31;4957337;29;20043;-84
2021/07/23 01:21:11;;;;;;;8.60;7.68;;;;;;;23.38;65.38;100058.31;4953453;28;20047;-83
2021/07/23 01:23:40;;;;;;;8.70;7.03;;;;;;;23.19;66.06;100054.13;4939623;29;20070;-83
2021/07/23 01:26:27;;;;;;;11.80;7.32;;;;;;;23.16;66.12;100053.63;4966250;28;20074;-84
2021/07/23 01:28:54;;;;;;;10.70;7.35;;;;;;;23.20;65.70;100050.47;4959318;28;20445;-83
2021/07/23 01:31:23;;;;;;;11.52;7.82;;;;;;;23.08;66.40;100046.47;4959547;28;20047;-83
2021/07/23 01:33:52;;;;;;;9.38;6.88;;;;;;;23.04;66.27;100052.28;4974587;28;20138;-83
2021/07/23 01:36:19;;;;;;;11.38;7.90;;;;;;;23.06;66.24;100035.16;4958680;28;20043;-83
2021/07/23 01:38:54;;;;;;;8.65;7.78;;;;;;;23.18;65.56;100025.06;4959364;28;20055;-84
2021/07/23 01:41:23;;;;;;;12.13;7.85;;;;;;;22.97;66.22;100021.03;4945603;29;20047;-84
2021/07/23 01:43:53;;;;;;;10.73;8.10;;;;;;;22.92;66.67;100014.53;4982424;23;20077;-77
2021/07/23 01:46:20;;;;;;;8.80;7.60;;;;;;;23.07;66.14;100017.41;4977318;28;20073;-77
2021/07/23 01:49:04;;;;;;;7.38;6.55;;;;;;;23.07;66.21;100012.09;4984499;28;20454;-77
2021/07/23 01:51:36;;;;;;;13.45;7.63;;;;;;;23.09;66.30;100010.06;4957945;28;20042;-76
2021/07/23 01:54:08;;;;;;;14.85;8.45;;;;;;;23.18;66.29;100014.44;4993346;28;20053;-76
2021/07/23 01:56:39;;;;;;;10.45;7.45;;;;;;;23.30;65.89;100013.09;4976788;28;20386;-76
2021/07/23 01:59:12;;;;;;;9.93;7.30;;;;;;;23.18;66.28;100009.09;4993244;28;20102;-76
2021/07/23 02:01:40;;;;;;;7.88;7.03;;;;;;;23.08;66.41;100009.25;4976214;28;20069;-77
2021/07/23 02:04:34;;;;;;;9.02;6.60;;;;;;;22.75;67.47;100011.78;4990920;28;20049;-77
2021/07/23 02:07:02;;;;;;;8.55;7.32;;;;;;;22.85;66.72;100011.66;4977080;28;20417;-77
2021/07/23 02:09:30;;;;;;;11.20;7.78;;;;;;;23.02;65.76;100009.06;4977354;28;20046;-77
2021/07/23 02:11:58;;;;;;;11.02;7.25;;;;;;;22.96;65.26;100008.72;4977172;28;20489;-77
2021/07/23 02:14:44;;;;;;;9.23;7.70;;;;;;;22.84;65.14;100007.31;4974213;28;20054;-77
2021/07/23 02:17:13;;;;;;;8.60;7.70;;;;;;;22.98;64.61;99993.44;4974219;28;20046;-77
2021/07/23 02:19:42;;;;;;;8.43;7.18;;;;;;;23.02;64.63;99995.78;4957365;28;20081;-77
2021/07/23 02:22:16;;;;;;;11.65;7.78;;;;;;;22.82;64.89;99998.69;4971267;28;20070;-75
2021/07/23 02:24:43;;;;;;;11.38;8.68;;;;;;;22.82;64.70;99990.72;4982797;28;20062;-74
2021/07/23 02:27:14;;;;;;;19.58;8.77;;;;;;;22.86;64.25;99988.56;4966368;28;20084;-75
2021/07/23 02:29:46;;;;;;;12.38;7.80;;;;;;;22.85;64.62;99987.75;4962334;28;20515;-76
2021/07/23 02:32:16;;;;;;;12.63;8.82;;;;;;;22.85;64.66;99993.06;4967413;28;20057;-76
2021/07/23 02:34:43;;;;;;;8.30;7.28;;;;;;;23.02;63.99;99993.13;4983668;28;20414;-76
2021/07/23 02:37:11;;;;;;;9.90;7.30;;;;;;;22.90;64.55;99988.09;4964858;28;20070;-76
2021/07/23 02:39:39;;;;;;;13.35;8.30;;;;;;;22.99;64.55;99992.44;4980324;28;20045;-76
2021/07/23 02:42:06;;;;;;;10.95;8.38;;;;;;;23.10;64.23;99998.44;4952965;28;20100;-76
2021/07/23 02:44:40;;;;;;;12.07;8.30;;;;;;;22.77;65.57;99998.34;4964573;28;20401;-73
2021/07/23 02:47:09;;;;;;;10.13;8.45;;;;;;;22.88;65.48;99995.41;4971508;28;20070;-76
2021/07/23 02:49:36;;;;;;;10.95;7.07;;;;;;;22.73;65.40;99995.16;4982810;28;20122;-74
2021/07/23 02:52:04;;;;;;;12.13;7.18;;;;;;;22.21;66.97;99997.06;4966337;28;20097;-74
2021/07/23 02:54:33;;;;;;;8.55;7.13;;;;;;;22.53;65.80;99999.09;4967161;28;20457;-77
2021/07/23 02:56:59;;;;;;;10.85;7.63;;;;;;;22.28;66.90;100000.78;4981166;28;20414;-77
2021/07/23 02:59:30;;;;;;;12.70;7.90;;;;;;;22.61;65.61;100001.75;4966031;28;20049;-78
2021/07/23 03:01:57;;;;;;;9.95;8.32;;;;;;;22.73;65.32;99999.63;4966803;28;20066;-77
2021/07/23 03:04:24;;;;;;;13.27;9.45;;;;;;;23.07;65.33;100010.25;4983488;28;20073;-76
2021/07/23 03:06:53;;;;;;;15.52;11.10;;;;;;;23.06;65.94;100005.06;4983790;28;20509;-75
2021/07/23 03:09:21;;;;;;;15.32;11.13;;;;;;;23.03;66.12;100006.25;4994049;28;20104;-77
2021/07/23 03:11:48;;;;;;;13.80;11.48;;;;;;;23.21;65.56;100011.41;4976188;28;20039;-77
2021/07/23 03:14:17;;;;;;;16.45;13.57;;;;;;;22.82;67.90;100019.13;4975860;28;20164;-76
2021/07/23 03:17:08;;;;;;;15.95;13.40;;;;;;;22.65;68.78;100018.22;4993146;28;20074;-77
2021/07/23 03:19:36;;;;;;;22.00;15.18;;;;;;;22.23;70.82;100019.84;4975848;28;20117;-78
2021/07/23 03:22:03;;;;;;;18.67;16.73;;;;;;;22.21;70.74;100026.28;4992238;28;20046;-77
2021/07/23 03:24:35;;;;;;;22.10;18.80;;;;;;;22.03;71.58;100028.97;4991922;28;20449;-78
2021/07/23 03:27:05;;;;;;;19.52;15.77;;;;;;;22.01;71.72;100024.81;4975973;28;20053;-78
2021/07/23 03:29:39;;;;;;;22.20;14.95;;;;;;;21.89;72.33;100017.13;4975356;28;20046;-78
2021/07/23 03:32:06;;;;;;;17.75;15.80;;;;;;;21.93;72.05;100023.75;4993658;28;20130;-78
2021/07/23 03:34:34;;;;;;;17.35;15.45;;;;;;;21.90;72.24;100018.78;4992896;28;20050;-78
2021/07/23 03:37:11;;;;;;;20.38;15.30;;;;;;;21.89;72.02;100021.56;4975986;28;20049;-78
2021/07/23 03:39:53;;;;;;;19.52;14.77;;;;;;;21.77;72.47;100028.94;4992909;28;20035;-78
2021/07/23 03:42:24;;;;;;;17.92;15.95;;;;;;;21.65;73.20;100020.41;4993151;28;20073;-77
2021/07/23 03:45:11;;;;;;;16.77;15.02;;;;;;;21.56;73.19;100017.81;4992401;28;20568;-78
2021/07/23 03:47:38;;;;;;;19.65;17.00;;;;;;;21.67;72.74;100018.41;4991810;28;20042;-78
2021/07/23 03:50:07;;;;;;;18.73;14.48;;;;;;;21.56;73.39;100016.00;4975734;28;20049;-78
2021/07/23 03:52:37;;;;;;;20.83;15.02;;;;;;;21.60;73.84;100022.66;4975281;28;20125;-78
2021/07/23 03:55:23;;;;;;;19.85;14.45;;;;;;;21.60;74.16;100021.84;4993242;28;20061;-78
2021/07/23 03:57:52;;;;;;;19.42;14.85;;;;;;;21.51;74.51;100026.22;4975115;28;20074;-77
2021/07/23 04:00:19;;;;;;;20.20;15.27;;;;;;;21.64;74.13;100029.34;4975850;28;20096;-77
2021/07/23 04:02:52;;;;;;;16.63;14.75;;;;;;;21.57;74.56;100023.00;4991399;28;20485;-77
2021/07/23 04:05:19;;;;;;;18.13;14.55;;;;;;;21.38;75.46;100023.97;4975426;28;20047;-77
2021/07/23 04:07:46;;;;;;;20.17;13.90;;;;;;;21.61;74.53;100032.28;4975043;28;20096;-78
2021/07/23 04:10:13;;;;;;;15.63;13.93;;;;;;;21.70;73.74;100025.25;4975415;28;20077;-77
2021/07/23 04:12:41;;;;;;;20.23;15.40;;;;;;;21.86;72.69;100033.31;4975044;28;20101;-77
2021/07/23 04:15:10;;;;;;;19.15;14.90;;;;;;;21.79;73.40;100032.28;4975529;28;20064;-78
2021/07/23 04:17:56;;;;;;;17.70;15.18;;;;;;;21.84;73.23;100034.44;4992342;28;20039;-78
2021/07/23 04:20:24;;;;;;;17.80;14.98;;;;;;;21.88;73.08;100031.34;4975292;28;20084;-78
2021/07/23 04:22:53;;;;;;;20.10;16.35;;;;;;;21.84;73.11;100035.31;4975270;28;20046;-78
2021/07/23 04:25:21;;;;;;;18.98;16.20;;;;;;;22.02;72.38;100026.47;4960621;28;20047;-77
2021/07/23 04:27:48;;;;;;;19.48;15.45;;;;;;;22.04;72.23;100035.09;4965518;28;20043;-77
2021/07/23 04:30:20;;;;;;;18.80;14.75;;;;;;;22.03;72.30;100033.44;4951767;28;20498;-78
2021/07/23 04:33:06;;;;;;;19.90;14.48;;;;;;;22.05;72.25;100032.31;4961913;28;20054;-77
2021/07/23 04:35:35;;;;;;;20.23;15.27;;;;;;;21.98;72.63;100034.72;4967529;28;20102;-77
2021/07/23 04:38:02;;;;;;;18.13;14.93;;;;;;;22.12;71.72;100032.56;4959225;28;20131;-77
2021/07/23 04:40:49;;;;;;;18.30;14.77;;;;;;;22.20;71.59;100035.25;4973471;28;20066;-77
2021/07/23 04:43:26;;;;;;;27.55;15.27;;;;;;;22.33;71.01;100033.00;4971794;28;20103;-77
2021/07/23 04:45:54;;;;;;;20.52;14.25;;;;;;;22.15;72.09;100032.22;4961507;28;20126;-77
2021/07/23 04:48:21;;;;;;;20.13;15.65;;;;;;;22.64;69.89;100030.69;4972454;28;20171;-77
2021/07/23 04:51:05;;;;;;;18.95;16.00;;;;;;;22.70;69.83;100031.84;4950190;28;20043;-78
2021/07/23 04:53:41;;;;;;;27.00;18.38;;;;;;;22.47;70.78;100027.09;4970412;28;20035;-78
2021/07/23 04:56:40;;;;;;;27.27;21.23;;;;;;;22.45;70.89;100030.91;4929744;28;20056;-78
2021/07/23 04:59:07;;;;;;;30.88;19.65;;;;;;;22.56;70.29;100027.97;4975884;28;20058;-77
2021/07/23 05:01:34;;;;;;;27.55;19.85;;;;;;;22.79;69.77;100020.25;4975626;28;20074;-76
2021/07/23 05:04:02;;;;;;;30.58;20.08;;;;;;;22.99;68.69;100020.84;4962522;28;20047;-76
2021/07/23 05:06:29;;;;;;;26.13;20.05;;;;;;;23.06;68.68;100026.34;4976222;28;20041;-76
2021/07/23 05:08:56;;;;;;;23.73;21.08;;;;;;;23.11;68.53;100018.72;4976670;28;20397;-77
2021/07/23 05:11:26;;;;;;;28.45;20.60;;;;;;;23.24;67.85;100017.25;4956364;29;20050;-76
2021/07/23 05:13:56;;;;;;;26.25;21.08;;;;;;;23.14;67.89;100015.75;4957074;29;20402;-77
2021/07/23 05:16:23;;;;;;;25.10;19.75;;;;;;;23.37;66.93;100018.59;4956619;28;20075;-76
2021/07/23 05:18:50;;;;;;;34.45;22.27;;;;;;;23.40;66.59;100019.09;4970419;28;20047;-78
2021/07/23 05:21:17;;;;;;;23.83;21.27;;;;;;;23.74;65.35;100021.63;4975540;28;20046;-77
2021/07/23 05:23:45;;;;;;;21.20;18.42;;;;;;;23.35;66.88;100021.41;4975619;28;20043;-77
2021/07/23 05:26:13;;;;;;;19.77;17.52;;;;;;;23.34;67.02;100014.44;4976382;28;20162;-79
2021/07/23 05:28:40;;;;;;;19.30;15.38;;;;;;;23.84;65.20;100016.13;4949861;29;20039;-80
2021/07/23 05:31:07;;;;;;;27.95;14.13;;;;;;;24.38;63.02;100019.03;4956792;28;20130;-80
2021/07/23 05:33:35;;;;;;;19.73;14.57;;;;;;;23.75;65.45;100014.47;4957153;29;20074;-79
2021/07/23 05:36:02;;;;;;;17.05;14.65;;;;;;;23.83;65.32;100011.81;4956585;29;20061;-78
2021/07/23 05:38:29;;;;;;;22.45;14.95;;;;;;;23.86;64.69;100008.81;4956824;29;20049;-79
2021/07/23 05:40:55;;;;;;;18.33;15.05;;;;;;;24.40;63.39;100011.72;4971712;28;20466;-79
2021/07/23 05:43:22;;;;;;;18.58;16.40;;;;;;;24.46;63.14;100000.38;4965108;28;20147;-79
2021/07/23 05:45:49;;;;;;;22.25;18.63;;;;;;;24.16;64.11;100019.75;4956188;28;20045;-79
2021/07/23 05:48:16;;;;;;;19.92;17.17;;;;;;;24.55;62.73;100012.69;4956696;28;20047;-79
2021/07/23 05:50:43;;;;;;;15.25;13.00;;;;;;;24.47;63.52;100018.03;4956114;28;20047;-79
2021/07/23 05:53:10;;;;;;;23.60;14.70;;;;;;;24.68;62.47;100019.28;4956869;29;20405;-79
2021/07/23 05:55:37;;;;;;;18.48;14.30;;;;;;;24.73;62.22;100020.44;4956219;28;20372;-82
2021/07/23 05:58:03;;;;;;;15.55;12.82;;;;;;;24.58;62.78;100021.31;4956451;28;20396;-82
2021/07/23 06:00:30;;;;;;;22.15;14.10;;;;;;;24.55;62.82;100018.00;4956158;29;20044;-83
2021/07/23 06:03:04;;;;;;;16.98;14.48;;;;;;;24.87;61.60;100024.16;4956264;29;20047;-82
2021/07/23 06:05:31;;;;;;;;;;;;;;;25.04;61.20;100015.09;4963605;28;20055;-80
2021/07/23 06:07:58;;;;;;;18.45;14.35;;;;;;;24.99;61.47;100014.81;4955763;28;19922;-80
2021/07/23 06:10:25;;;;;;;17.23;13.02;;;;;;;25.13;61.33;100015.06;4954968;28;20047;-80
2021/07/23 06:12:52;;;;;;;15.73;12.32;;;;;;;24.86;62.13;100011.84;4954701;28;20047;-80
2021/07/23 06:15:19;;;;;;;31.15;16.15;;;;;;;25.20;61.03;100013.38;4955994;29;20039;-79
2021/07/23 06:17:46;;;;;;;22.85;16.90;;;;;;;24.92;62.12;100015.66;4955800;28;20621;-82
2021/07/23 06:20:13;;;;;;;24.25;16.08;;;;;;;25.05;61.79;100013.25;4956391;28;20384;-81
2021/07/23 06:22:40;;;;;;;23.92;15.45;;;;;;;24.95;62.26;100018.81;4938914;29;20043;-81
2021/07/23 06:25:08;;;;;;;25.13;16.77;;;;;;;24.95;62.10;100021.47;4955512;28;20071;-81
2021/07/23 06:27:34;;;;;;;23.05;17.40;;;;;;;25.14;61.07;100019.38;4955885;28;20051;-79
2021/07/23 06:30:03;;;;;;;24.60;16.33;;;;;;;25.10;61.47;100020.78;4957198;28;20043;-80
2021/07/23 06:32:33;;;;;;;21.02;14.88;;;;;;;25.50;59.96;100028.47;4975098;28;20046;-81
2021/07/23 06:35:00;;;;;;;23.13;15.10;;;;;;;25.79;59.20;100018.94;4960727;28;20138;-82
2021/07/23 06:37:27;;;;;;;21.42;17.35;;;;;;;25.76;59.12;100025.47;4955641;29;20043;-82
2021/07/23 06:39:54;;;;;;;17.83;14.10;;;;;;;25.24;61.47;100020.81;4955369;29;20043;-82
2021/07/23 06:42:21;;;;;;;19.30;14.55;;;;;;;25.60;60.42;100021.06;4955323;28;20047;-82
2021/07/23 06:44:48;;;;;;;19.83;14.88;;;;;;;25.57;60.48;100026.78;4955485;29;20047;-82
2021/07/23 06:47:15;;;;;;;22.05;14.85;;;;;;;25.37;61.08;100022.91;4955520;28;20051;-81
2021/07/23 06:49:42;;;;;;;15.15;12.90;;;;;;;25.53;60.72;100027.31;4955416;28;20043;-82
2021/07/23 06:52:10;;;;;;;19.90;14.48;;;;;;;25.37;60.94;100028.25;4965847;28;20050;-86
2021/07/23 06:54:37;;;;;;;19.83;14.52;;;;;;;25.27;61.12;100025.81;4971797;28;20169;-83
2021/07/23 06:57:04;;;;;;;18.65;13.75;;;;;;;25.48;61.08;100016.34;4966481;28;20051;-82
2021/07/23 06:59:35;;;;;;;17.13;12.90;;;;;;;25.74;60.15;100022.16;4968433;28;20149;-81
2021/07/23 07:02:02;;;;;;;20.95;14.10;;;;;;;25.55;60.08;100015.44;4965474;28;20043;-81
2021/07/23 07:04:30;;;;;;;14.57;11.98;;;;;;;25.60;59.97;100014.91;4967939;28;20442;-79
2021/07/23 07:06:58;;;;;;;17.00;12.32;;;;;;;25.68;59.56;100022.84;4966063;28;20066;-79
2021/07/23 07:09:27;;;;;;;16.38;11.18;;;;;;;25.98;59.23;100018.41;4969856;28;20125;-77
2021/07/23 07:12:00;;;;;;;19.35;12.32;;;;;;;25.83;58.42;100009.53;4971072;28;20134;-81
2021/07/23 07:14:27;;;;;;;16.37;11.97;;;;;;;25.94;58.48;100013.63;4967068;28;20097;-78
2021/07/23 07:16:55;;;;;;;15.48;12.27;;;;;;;26.02;58.71;100025.06;4969596;28;20042;-81
2021/07/23 07:19:22;;;;;;;14.23;11.73;;;;;;;26.26;57.80;100017.78;4967841;28;20409;-80
2021/07/23 07:21:49;;;;;;;14.00;10.75;;;;;;;26.05;58.56;100024.72;4969086;28;20498;-80
2021/07/23 07:24:17;;;;;;;15.60;10.95;;;;;;;26.12;57.91;100020.28;4965298;28;20089;-83
2021/07/23 07:26:46;;;;;;;22.23;10.55;;;;;;;26.31;57.26;100020.75;4969309;28;20043;-80
2021/07/23 07:29:13;;;;;;;13.65;9.60;;;;;;;26.40;56.20;100022.31;4963284;28;20134;-80
2021/07/23 07:31:41;;;;;;;15.52;9.82;;;;;;;26.61;55.99;100018.94;4967064;28;20054;-77
2021/07/23 07:34:08;;;;;;;12.48;9.02;;;;;;;26.66;54.45;100018.38;4968815;28;20106;-79
2021/07/23 07:36:36;;;;;;;10.02;9.00;;;;;;;26.68;54.63;100013.66;4969929;28;20045;-80
2021/07/23 07:39:04;;;;;;;11.75;9.25;;;;;;;26.81;54.98;100011.16;4971786;28;20039;-78
2021/07/23 07:41:31;;;;;;;14.48;9.40;;;;;;;27.01;54.18;100019.41;4970481;28;20060;-80
2021/07/23 07:43:58;;;;;;;9.20;8.30;;;;;;;26.81;54.47;100013.84;4950524;28;20055;-81
2021/07/23 07:46:25;;;;;;;12.48;9.48;;;;;;;26.70;55.05;100017.00;4969793;28;20510;-76
2021/07/23 07:48:52;;;;;;;10.50;9.32;;;;;;;26.25;56.23;100013.47;4966220;28;20053;-78
2021/07/23 07:51:20;;;;;;;16.20;10.82;;;;;;;26.69;55.44;100020.69;4951872;28;20070;-77
2021/07/23 07:53:47;;;;;;;15.48;9.98;;;;;;;26.84;55.14;100011.59;4954870;28;20051;-78
2021/07/23 07:56:14;;;;;;;12.38;10.48;;;;;;;26.86;54.81;100006.09;4968528;28;20113;-80
2021/07/23 07:58:41;;;;;;;15.48;12.23;;;;;;;26.69;55.67;100001.97;4960338;28;20049;-81
2021/07/23 08:01:09;;;;;;;13.13;11.70;;;;;;;26.77;55.11;100007.19;4969408;28;20066;-77
2021/07/23 08:03:37;;;;;;;21.25;11.70;;;;;;;26.51;56.17;100002.34;4965132;28;20039;-87
2021/07/23 08:06:06;;;;;;;19.23;12.25;;;;;;;26.89;54.43;99997.66;4967753;28;20051;-81
2021/07/23 08:08:33;;;;;;;19.70;11.27;;;;;;;26.60;55.82;100006.59;4970090;28;20071;-81
2021/07/23 08:11:00;;;;;;;19.13;12.95;;;;;;;26.41;56.53;100012.47;4966970;28;20413;-81
2021/07/23 08:13:27;;;;;;;18.55;12.75;;;;;;;26.26;56.78;100004.44;4967079;28;20042;-81
2021/07/23 08:15:56;;;;;;;12.93;11.55;;;;;;;26.46;56.36;100007.41;4969401;28;20050;-82
2021/07/23 08:18:24;;;;;;;20.35;12.88;;;;;;;26.21;57.19;100004.19;4974347;28;20039;-82
2021/07/23 08:20:51;;;;;;;17.05;12.70;;;;;;;26.26;57.27;99999.09;4972817;28;20134;-82
2021/07/23 08:23:21;;;;;;;15.55;11.30;;;;;;;26.48;56.07;99992.03;4973826;28;20055;-83
2021/07/23 08:25:48;;;;;;;15.70;12.68;;;;;;;26.66;55.44;100005.84;4973762;28;20064;-80
2021/07/23 08:28:16;;;;;;;14.70;12.23;;;;;;;26.73;54.81;100000.56;4962525;28;20078;-79
2021/07/23 08:30:44;;;;;;;19.52;11.98;;;;;;;26.81;55.66;99997.78;4963721;28;20101;-81
2021/07/23 08:33:11;;;;;;;20.42;13.00;;;;;;;26.86;55.50;99998.06;4967927;28;20429;-80
2021/07/23 08:35:39;;;;;;;16.38;12.32;;;;;;;26.76;55.52;100005.53;4971215;28;20142;-81
2021/07/23 08:38:06;;;;;;;18.80;12.35;;;;;;;26.45;56.07;100003.91;4972409;28;20444;-78
2021/07/23 08:40:33;;;;;;;15.63;11.73;;;;;;;26.47;56.06;99996.53;4971652;28;20462;-77
2021/07/23 08:43:02;;;;;;;12.75;11.30;;;;;;;26.56;56.36;99999.94;4951644;28;20043;-81
2021/07/23 08:45:29;;;;;;;18.02;11.73;;;;;;;26.72;55.79;99998.91;4973756;28;20039;-80
2021/07/23 08:47:56;;;;;;;16.58;12.15;;;;;;;26.34;57.25;100001.69;4972807;28;20050;-80
2021/07/23 08:50:24;;;;;;;14.63;11.82;;;;;;;26.62;56.95;100004.53;4975305;28;20035;-80
2021/07/23 08:52:54;;;;;;;15.07;12.60;;;;;;;26.62;56.11;100005.38;4970206;28;20067;-81
2021/07/23 08:55:22;;;;;;;16.10;10.90;;;;;;;26.68;56.18;100002.97;4975765;28;20081;-78
2021/07/23 08:57:51;;;;;;;13.95;12.32;;;;;;;26.59;56.00;99994.25;4957515;28;20133;-78
2021/07/23 09:00:20;;;;;;;16.38;11.98;;;;;;;26.56;56.09;100006.13;4973723;28;20081;-75
2021/07/23 09:02:50;;;;;;;17.42;12.60;;;;;;;26.87;55.54;99994.38;4954362;28;20379;-79
2021/07/23 09:05:19;;;;;;;15.23;11.30;;;;;;;26.80;55.83;99991.63;4974006;28;20405;-77
2021/07/23 09:07:46;;;;;;;14.05;11.25;;;;;;;26.99;54.88;99992.00;4970331;28;20046;-78
2021/07/23 09:10:25;;;;;;;16.20;10.90;;;;;;;27.26;54.00;99993.97;4973000;28;20065;-80
2021/07/23 09:12:54;;;;;;;15.07;9.77;;;;;;;26.96;54.91;99995.91;4957086;28;20049;-79
2021/07/23 09:15:27;;;;;;;12.90;11.15;;;;;;;26.89;55.05;99995.00;4966214;28;20046;-79
2021/07/23 09:17:55;;;;;;;12.20;10.87;;;;;;;27.00;54.60;99986.47;4968794;28;20074;-79
2021/07/23 09:20:25;;;;;;;15.45;10.32;;;;;;;26.98;54.36;99999.22;4971232;28;20134;-79
2021/07/23 09:22:57;;;;;;;11.93;10.68;;;;;;;27.27;53.72;99987.63;4966282;28;20098;-80
2021/07/23 09:25:36;;;;;;;14.10;11.30;;;;;;;27.41;53.14;99992.06;4976522;28;20053;-80
2021/07/23 09:28:18;;;;;;;13.75;8.95;;;;;;;27.29;53.90;99992.78;4970588;28;20463;-79
2021/07/23 09:30:45;;;;;;;15.65;10.50;;;;;;;27.41;53.51;99988.56;4973025;28;20053;-79
2021/07/23 09:33:12;;;;;;;13.80;9.95;;;;;;;27.45;53.05;99989.84;4968053;28;20039;-79
2021/07/23 09:35:53;;;;;;;13.95;9.77;;;;;;;27.31;53.67;99993.41;4969605;28;20038;-79
2021/07/23 09:38:22;;;;;;;13.82;10.57;;;;;;;27.01;53.91;99987.31;4969897;28;20129;-79
2021/07/23 09:40:49;;;;;;;16.00;10.68;;;;;;;27.18;53.29;99991.44;4970051;28;20090;-79
2021/07/23 09:43:28;;;;;;;15.32;10.88;;;;;;;27.16;53.50;99993.47;4957918;28;20050;-79
2021/07/23 09:45:56;;;;;;;16.40;9.65;;;;;;;27.17;53.70;99994.31;4972193;28;20409;-79
2021/07/23 09:48:27;;;;;;;13.20;9.32;;;;;;;27.28;53.56;99991.94;4958969;28;20182;-79
2021/07/23 09:50:55;;;;;;;21.40;9.98;;;;;;;27.62;51.94;99999.25;4971408;28;20074;-79
2021/07/23 09:53:22;;;;;;;14.88;10.15;;;;;;;27.62;52.11;99996.56;4965103;28;20427;-79
2021/07/23 09:55:49;;;;;;;15.45;11.25;;;;;;;27.65;51.87;99992.69;4969758;28;20047;-78
2021/07/23 09:58:20;;;;;;;11.55;9.90;;;;;;;27.71;52.19;99988.44;4972228;28;20031;-80
2021/07/23 10:00:59;;;;;;;12.02;9.80;;;;;;;27.67;51.70;99987.97;4967078;28;20047;-80
2021/07/23 10:03:27;;;;;;;12.18;9.77;;;;;;;27.73;52.05;99986.38;4967142;28;20138;-79
2021/07/23 10:06:00;;;;;;;14.88;11.00;;;;;;;27.97;51.37;99987.81;4972244;28;20046;-79
2021/07/23 10:08:31;;;;;;;12.35;9.45;;;;;;;27.96;51.38;99986.97;4972841;28;20049;-78
2021/07/23 10:11:04;;;;;;;16.77;9.88;;;;;;;27.85;51.40;99976.78;4969808;28;20039;-77
2021/07/23 10:13:37;;;;;;;10.93;9.50;;;;;;;28.06;51.29;99971.38;4968101;28;20057;-77
2021/07/23 10:16:06;;;;;;;13.77;9.60;;;;;;;27.88;51.16;99973.72;4970536;28;20047;-78
2021/07/23 10:18:35;;;;;;;13.52;9.95;;;;;;;27.91;51.15;99973.31;4970850;28;20035;-80
2021/07/23 10:21:06;;;;;;;10.65;8.77;;;;;;;28.09;50.50;99968.31;4969058;28;20148;-79
2021/07/23 10:23:35;;;;;;;26.30;10.40;;;;;;;28.32;50.33;99975.22;4969694;28;20046;-80
2021/07/23 10:26:03;;;;;;;12.50;8.55;;;;;;;28.41;50.35;99963.34;4964681;28;20028;-80
2021/07/23 10:28:43;;;;;;;13.52;9.63;;;;;;;28.32;50.45;99959.13;4956698;28;20089;-79
2021/07/23 10:31:24;;;;;;;16.10;9.88;;;;;;;28.37;50.59;99951.34;4967211;28;20039;-78
2021/07/23 10:33:55;;;;;;;12.93;9.50;;;;;;;28.33;50.13;99950.91;4972071;28;20053;-78
2021/07/23 10:36:31;;;;;;;10.60;8.52;;;;;;;28.40;50.54;99945.63;4959828;28;20489;-79
2021/07/23 10:39:07;;;;;;;12.32;8.50;;;;;;;28.57;50.05;99941.56;4973719;28;20039;-79
2021/07/23 10:41:41;;;;;;;11.43;10.23;;;;;;;28.51;50.50;99942.34;4969531;28;20045;-80
2021/07/23 10:44:33;;;;;;;13.02;9.07;;;;;;;28.67;50.15;99933.13;4965825;28;20123;-80
2021/07/23 10:47:00;;;;;;;15.02;8.75;;;;;;;28.76;50.41;99920.34;4970050;28;20042;-80
2021/07/23 10:49:27;;;;;;;22.08;11.68;;;;;;;28.35;51.11;99932.81;4970406;28;20042;-80
2021/07/23 10:51:58;;;;;;;11.82;9.90;;;;;;;28.48;50.79;99923.16;4964884;28;20067;-79
2021/07/23 10:54:32;;;;;;;12.02;9.73;;;;;;;28.59;50.61;99918.03;4967947;28;20121;-79
2021/07/23 10:57:02;;;;;;;13.05;9.77;;;;;;;28.86;49.52;99912.72;4969999;28;20346;-80
2021/07/23 10:59:38;;;;;;;14.05;11.25;;;;;;;28.80;50.13;99918.91;4969600;28;20101;-81
2021/07/23 11:02:15;;;;;;;12.63;10.68;;;;;;;28.96;49.55;99919.38;4969229;28;20046;-78
2021/07/23 11:04:48;;;;;;;14.77;9.77;;;;;;;28.91;49.22;99910.25;4963969;28;20042;-80
2021/07/23 11:07:23;;;;;;;13.15;10.23;;;;;;;28.74;48.70;99907.13;4968460;28;20065;-78
2021/07/23 11:09:50;;;;;;;16.63;9.35;;;;;;;28.61;49.13;99902.59;4970333;28;20048;-78
2021/07/23 11:12:33;;;;;;;11.07;9.18;;;;;;;28.30;49.86;99896.88;4971896;28;20065;-77
2021/07/23 11:15:03;;;;;;;13.80;10.20;;;;;;;28.83;48.21;99899.75;4967739;28;20039;-80
2021/07/23 11:17:31;;;;;;;13.63;10.20;;;;;;;28.94;48.11;99893.81;4966289;28;20051;-80
2021/07/23 11:20:01;;;;;;;18.65;10.27;;;;;;;28.85;48.02;99889.63;4971317;28;20065;-78
2021/07/23 11:22:32;;;;;;;11.98;8.98;;;;;;;28.92;48.02;99893.13;4972046;28;20038;-78
2021/07/23 11:25:01;;;;;;;14.63;9.68;;;;;;;29.05;47.55;99892.38;4966615;28;20047;-80
2021/07/23 11:27:30;;;;;;;11.02;9.18;;;;;;;29.04;47.82;99894.22;4965381;28;20038;-79
2021/07/23 11:29:58;;;;;;;12.23;9.80;;;;;;;28.98;47.59;99884.31;4963735;28;20109;-79